sensor_id;sensor_type;location;lat;lon;timestamp;P1;durP1;ratioP1;P2;durP2;ratioP2
63714;SDS011;49858;48.956;9.076;2022-10-16T00:00:09;4.20;;;1.30;;
63714;SDS011;49858;48.956;9.076;2022-10-16T00:02:38;3.72;;;1.35;;
63714;SDS011;49858;48.956;9.076;2022-10-16T00:05:06;2.38;;;1.40;;
63714;SDS011;49858;48.956;9.076;2022-10-16T00:07:33;2.00;;;1.30;;
63714;SDS011;49858;48.956;9.076;2022-10-16T00:10:01;1.52;;;1.05;;
63714;SDS011;49858;48.956;9.076;2022-10-16T00:12:31;5.05;;;1.40;;
63714;SDS011;49858;48.956;9.076;2022-10-16T00:15:00;6.28;;;1.48;;
63714;SDS011;49858;48.956;9.076;2022-10-16T00:17:29;2.00;;;1.35;;
63714;SDS011;49858;48.956;9.076;2022-10-16T00:19:56;5.28;;;1.40;;
63714;SDS011;49858;48.956;9.076;2022-10-16T00:22:24;3.53;;;1.38;;
63714;SDS011;49858;48.956;9.076;2022-10-16T00:24:52;4.35;;;1.40;;
63714;SDS011;49858;48.956;9.076;2022-10-16T00:27:20;2.65;;;1.52;;
63714;SDS011;49858;48.956;9.076;2022-10-16T00:29:49;2.00;;;1.55;;
63714;SDS011;49858;48.956;9.076;2022-10-16T00:32:19;1.90;;;1.23;;
63714;SDS011;49858;48.956;9.076;2022-10-16T00:34:47;2.33;;;1.30;;
63714;SDS011;49858;48.956;9.076;2022-10-16T00:37:14;2.58;;;1.35;;
63714;SDS011;49858;48.956;9.076;2022-10-16T00:39:42;2.42;;;1.17;;
63714;SDS011;49858;48.956;9.076;2022-10-16T00:42:11;1.70;;;1.40;;
63714;SDS011;49858;48.956;9.076;2022-10-16T00:44:47;1.70;;;1.17;;
63714;SDS011;49858;48.956;9.076;2022-10-16T00:47:21;1.85;;;1.20;;
63714;SDS011;49858;48.956;9.076;2022-10-16T00:49:55;3.63;;;1.20;;
63714;SDS011;49858;48.956;9.076;2022-10-16T00:52:26;1.85;;;1.17;;
63714;SDS011;49858;48.956;9.076;2022-10-16T00:54:54;3.17;;;1.70;;
63714;SDS011;49858;48.956;9.076;2022-10-16T00:57:23;2.40;;;1.30;;
63714;SDS011;49858;48.956;9.076;2022-10-16T00:59:52;2.67;;;1.50;;
63714;SDS011;49858;48.956;9.076;2022-10-16T01:02:22;5.20;;;2.50;;
63714;SDS011;49858;48.956;9.076;2022-10-16T01:04:50;3.42;;;2.25;;
63714;SDS011;49858;48.956;9.076;2022-10-16T01:07:24;2.85;;;1.70;;
63714;SDS011;49858;48.956;9.076;2022-10-16T01:10:04;2.13;;;1.70;;
63714;SDS011;49858;48.956;9.076;2022-10-16T01:12:40;2.50;;;1.67;;
63714;SDS011;49858;48.956;9.076;2022-10-16T01:15:14;6.60;;;1.90;;
63714;SDS011;49858;48.956;9.076;2022-10-16T01:17:48;2.33;;;1.40;;
63714;SDS011;49858;48.956;9.076;2022-10-16T01:20:22;4.28;;;1.63;;
63714;SDS011;49858;48.956;9.076;2022-10-16T01:22:56;5.65;;;1.95;;
63714;SDS011;49858;48.956;9.076;2022-10-16T01:25:37;2.67;;;1.65;;
63714;SDS011;49858;48.956;9.076;2022-10-16T01:28:18;2.58;;;1.55;;
63714;SDS011;49858;48.956;9.076;2022-10-16T01:30:48;2.00;;;1.50;;
63714;SDS011;49858;48.956;9.076;2022-10-16T01:33:24;4.88;;;1.70;;
63714;SDS011;49858;48.956;9.076;2022-10-16T01:35:58;3.63;;;1.55;;
63714;SDS011;49858;48.956;9.076;2022-10-16T01:38:30;3.78;;;1.52;;
63714;SDS011;49858;48.956;9.076;2022-10-16T01:41:03;4.93;;;1.60;;
63714;SDS011;49858;48.956;9.076;2022-10-16T01:43:38;4.22;;;1.70;;
63714;SDS011;49858;48.956;9.076;2022-10-16T01:46:09;2.07;;;1.60;;
63714;SDS011;49858;48.956;9.076;2022-10-16T01:48:37;3.20;;;1.70;;
63714;SDS011;49858;48.956;9.076;2022-10-16T01:51:07;4.35;;;1.70;;
63714;SDS011;49858;48.956;9.076;2022-10-16T01:53:39;2.42;;;1.38;;
63714;SDS011;49858;48.956;9.076;2022-10-16T01:56:09;3.78;;;1.70;;
63714;SDS011;49858;48.956;9.076;2022-10-16T01:58:42;2.83;;;1.73;;
63714;SDS011;49858;48.956;9.076;2022-10-16T02:01:15;1.40;;;1.20;;
63714;SDS011;49858;48.956;9.076;2022-10-16T02:03:46;3.53;;;1.55;;
63714;SDS011;49858;48.956;9.076;2022-10-16T02:06:19;5.68;;;2.13;;
63714;SDS011;49858;48.956;9.076;2022-10-16T02:08:48;5.95;;;1.55;;
63714;SDS011;49858;48.956;9.076;2022-10-16T02:11:15;4.45;;;1.73;;
63714;SDS011;49858;48.956;9.076;2022-10-16T02:13:45;3.40;;;1.77;;
63714;SDS011;49858;48.956;9.076;2022-10-16T02:16:15;4.22;;;1.73;;
63714;SDS011;49858;48.956;9.076;2022-10-16T02:18:43;3.33;;;2.10;;
63714;SDS011;49858;48.956;9.076;2022-10-16T02:21:13;1.95;;;1.45;;
63714;SDS011;49858;48.956;9.076;2022-10-16T02:23:45;2.40;;;1.50;;
63714;SDS011;49858;48.956;9.076;2022-10-16T02:26:19;2.30;;;1.70;;
63714;SDS011;49858;48.956;9.076;2022-10-16T02:28:57;2.85;;;1.50;;
63714;SDS011;49858;48.956;9.076;2022-10-16T02:31:31;1.90;;;1.50;;
63714;SDS011;49858;48.956;9.076;2022-10-16T02:34:02;2.40;;;1.70;;
63714;SDS011;49858;48.956;9.076;2022-10-16T02:36:33;2.72;;;1.70;;
63714;SDS011;49858;48.956;9.076;2022-10-16T02:39:03;2.22;;;1.60;;
63714;SDS011;49858;48.956;9.076;2022-10-16T02:41:32;3.00;;;1.90;;
63714;SDS011;49858;48.956;9.076;2022-10-16T02:44:01;2.50;;;1.80;;
63714;SDS011;49858;48.956;9.076;2022-10-16T02:46:29;2.75;;;1.65;;
63714;SDS011;49858;48.956;9.076;2022-10-16T02:48:57;4.68;;;2.10;;
63714;SDS011;49858;48.956;9.076;2022-10-16T02:51:25;3.03;;;1.67;;
63714;SDS011;49858;48.956;9.076;2022-10-16T02:53:53;3.97;;;1.77;;
63714;SDS011;49858;48.956;9.076;2022-10-16T02:56:20;2.20;;;1.63;;
63714;SDS011;49858;48.956;9.076;2022-10-16T02:58:48;3.17;;;1.85;;
63714;SDS011;49858;48.956;9.076;2022-10-16T03:01:17;3.38;;;1.77;;
63714;SDS011;49858;48.956;9.076;2022-10-16T03:03:45;2.17;;;1.58;;
63714;SDS011;49858;48.956;9.076;2022-10-16T03:06:12;2.10;;;1.58;;
63714;SDS011;49858;48.956;9.076;2022-10-16T03:08:40;2.13;;;1.70;;
63714;SDS011;49858;48.956;9.076;2022-10-16T03:11:08;3.42;;;1.90;;
63714;SDS011;49858;48.956;9.076;2022-10-16T03:13:36;4.13;;;2.00;;
63714;SDS011;49858;48.956;9.076;2022-10-16T03:16:03;4.07;;;1.70;;
63714;SDS011;49858;48.956;9.076;2022-10-16T03:18:32;1.70;;;1.50;;
63714;SDS011;49858;48.956;9.076;2022-10-16T03:21:00;3.00;;;1.65;;
63714;SDS011;49858;48.956;9.076;2022-10-16T03:23:28;2.83;;;1.55;;
63714;SDS011;49858;48.956;9.076;2022-10-16T03:26:01;3.05;;;1.60;;
63714;SDS011;49858;48.956;9.076;2022-10-16T03:28:28;2.55;;;1.38;;
63714;SDS011;49858;48.956;9.076;2022-10-16T03:30:57;6.47;;;1.77;;
63714;SDS011;49858;48.956;9.076;2022-10-16T03:33:24;5.72;;;1.80;;
63714;SDS011;49858;48.956;9.076;2022-10-16T03:35:53;2.83;;;1.60;;
63714;SDS011;49858;48.956;9.076;2022-10-16T03:38:22;4.20;;;1.63;;
63714;SDS011;49858;48.956;9.076;2022-10-16T03:40:50;4.40;;;1.70;;
63714;SDS011;49858;48.956;9.076;2022-10-16T03:43:17;2.88;;;1.80;;
63714;SDS011;49858;48.956;9.076;2022-10-16T03:45:45;4.43;;;1.90;;
63714;SDS011;49858;48.956;9.076;2022-10-16T03:48:13;2.53;;;1.42;;
63714;SDS011;49858;48.956;9.076;2022-10-16T03:50:40;2.65;;;1.70;;
63714;SDS011;49858;48.956;9.076;2022-10-16T03:53:10;3.22;;;1.70;;
63714;SDS011;49858;48.956;9.076;2022-10-16T03:55:37;2.88;;;2.10;;
63714;SDS011;49858;48.956;9.076;2022-10-16T03:58:05;4.82;;;1.95;;
63714;SDS011;49858;48.956;9.076;2022-10-16T04:00:33;3.28;;;1.73;;
63714;SDS011;49858;48.956;9.076;2022-10-16T04:03:01;3.10;;;1.70;;
63714;SDS011;49858;48.956;9.076;2022-10-16T04:05:29;1.88;;;1.50;;
63714;SDS011;49858;48.956;9.076;2022-10-16T04:07:57;3.05;;;1.92;;
63714;SDS011;49858;48.956;9.076;2022-10-16T04:10:26;5.38;;;2.10;;
63714;SDS011;49858;48.956;9.076;2022-10-16T04:12:53;2.42;;;1.70;;
63714;SDS011;49858;48.956;9.076;2022-10-16T04:15:22;2.72;;;1.73;;
63714;SDS011;49858;48.956;9.076;2022-10-16T04:17:50;4.00;;;1.80;;
63714;SDS011;49858;48.956;9.076;2022-10-16T04:20:18;4.57;;;2.00;;
63714;SDS011;49858;48.956;9.076;2022-10-16T04:22:46;3.58;;;1.70;;
63714;SDS011;49858;48.956;9.076;2022-10-16T04:25:14;5.15;;;1.90;;
63714;SDS011;49858;48.956;9.076;2022-10-16T04:27:43;4.75;;;2.15;;
63714;SDS011;49858;48.956;9.076;2022-10-16T04:30:11;3.63;;;2.00;;
63714;SDS011;49858;48.956;9.076;2022-10-16T04:32:40;6.30;;;2.53;;
63714;SDS011;49858;48.956;9.076;2022-10-16T04:35:08;3.45;;;2.22;;
63714;SDS011;49858;48.956;9.076;2022-10-16T04:37:36;6.53;;;2.08;;
63714;SDS011;49858;48.956;9.076;2022-10-16T04:40:04;3.03;;;2.22;;
63714;SDS011;49858;48.956;9.076;2022-10-16T04:42:32;13.10;;;2.33;;
63714;SDS011;49858;48.956;9.076;2022-10-16T04:45:01;3.50;;;2.42;;
63714;SDS011;49858;48.956;9.076;2022-10-16T04:47:29;5.15;;;3.22;;
63714;SDS011;49858;48.956;9.076;2022-10-16T04:49:57;4.38;;;3.00;;
63714;SDS011;49858;48.956;9.076;2022-10-16T04:52:28;9.18;;;2.83;;
63714;SDS011;49858;48.956;9.076;2022-10-16T04:54:57;6.13;;;2.33;;
63714;SDS011;49858;48.956;9.076;2022-10-16T04:57:28;4.65;;;2.30;;
63714;SDS011;49858;48.956;9.076;2022-10-16T04:59:57;3.30;;;2.15;;
63714;SDS011;49858;48.956;9.076;2022-10-16T05:02:26;3.25;;;1.80;;
63714;SDS011;49858;48.956;9.076;2022-10-16T05:04:54;8.32;;;2.40;;
63714;SDS011;49858;48.956;9.076;2022-10-16T05:07:21;4.72;;;2.20;;
63714;SDS011;49858;48.956;9.076;2022-10-16T05:09:50;3.13;;;2.70;;
63714;SDS011;49858;48.956;9.076;2022-10-16T05:12:17;6.05;;;2.22;;
63714;SDS011;49858;48.956;9.076;2022-10-16T05:14:45;2.88;;;2.15;;
63714;SDS011;49858;48.956;9.076;2022-10-16T05:17:13;5.60;;;2.38;;
63714;SDS011;49858;48.956;9.076;2022-10-16T05:19:42;4.00;;;2.42;;
63714;SDS011;49858;48.956;9.076;2022-10-16T05:22:10;7.38;;;2.75;;
63714;SDS011;49858;48.956;9.076;2022-10-16T05:24:38;6.38;;;2.30;;
63714;SDS011;49858;48.956;9.076;2022-10-16T05:27:05;3.40;;;2.47;;
63714;SDS011;49858;48.956;9.076;2022-10-16T05:29:33;4.80;;;2.80;;
63714;SDS011;49858;48.956;9.076;2022-10-16T05:32:01;4.55;;;2.50;;
63714;SDS011;49858;48.956;9.076;2022-10-16T05:34:29;6.38;;;2.60;;
63714;SDS011;49858;48.956;9.076;2022-10-16T05:36:58;4.07;;;2.60;;
63714;SDS011;49858;48.956;9.076;2022-10-16T05:39:25;5.07;;;2.70;;
63714;SDS011;49858;48.956;9.076;2022-10-16T05:41:53;9.50;;;3.30;;
63714;SDS011;49858;48.956;9.076;2022-10-16T05:44:21;8.98;;;2.97;;
63714;SDS011;49858;48.956;9.076;2022-10-16T05:46:49;3.53;;;2.40;;
63714;SDS011;49858;48.956;9.076;2022-10-16T05:49:16;3.60;;;2.55;;
63714;SDS011;49858;48.956;9.076;2022-10-16T05:51:44;3.97;;;2.50;;
63714;SDS011;49858;48.956;9.076;2022-10-16T05:54:13;5.55;;;2.55;;
63714;SDS011;49858;48.956;9.076;2022-10-16T05:56:41;4.88;;;2.92;;
63714;SDS011;49858;48.956;9.076;2022-10-16T05:59:09;8.38;;;2.40;;
63714;SDS011;49858;48.956;9.076;2022-10-16T06:01:37;6.15;;;2.75;;
63714;SDS011;49858;48.956;9.076;2022-10-16T06:04:05;3.38;;;2.42;;
63714;SDS011;49858;48.956;9.076;2022-10-16T06:06:32;5.55;;;2.70;;
63714;SDS011;49858;48.956;9.076;2022-10-16T06:09:02;5.80;;;3.05;;
63714;SDS011;49858;48.956;9.076;2022-10-16T06:11:32;3.33;;;2.50;;
63714;SDS011;49858;48.956;9.076;2022-10-16T06:14:01;3.58;;;2.85;;
63714;SDS011;49858;48.956;9.076;2022-10-16T06:16:33;8.68;;;3.42;;
63714;SDS011;49858;48.956;9.076;2022-10-16T06:19:02;6.50;;;3.25;;
63714;SDS011;49858;48.956;9.076;2022-10-16T06:21:32;5.03;;;3.10;;
63714;SDS011;49858;48.956;9.076;2022-10-16T06:24:00;7.63;;;3.20;;
63714;SDS011;49858;48.956;9.076;2022-10-16T06:26:29;5.60;;;3.00;;
63714;SDS011;49858;48.956;9.076;2022-10-16T06:28:59;6.75;;;3.42;;
63714;SDS011;49858;48.956;9.076;2022-10-16T06:31:28;3.40;;;2.80;;
63714;SDS011;49858;48.956;9.076;2022-10-16T06:33:57;3.35;;;2.53;;
63714;SDS011;49858;48.956;9.076;2022-10-16T06:36:25;10.18;;;2.80;;
63714;SDS011;49858;48.956;9.076;2022-10-16T06:38:53;4.18;;;3.13;;
63714;SDS011;49858;48.956;9.076;2022-10-16T06:41:22;6.03;;;2.70;;
63714;SDS011;49858;48.956;9.076;2022-10-16T06:43:50;4.30;;;2.70;;
63714;SDS011;49858;48.956;9.076;2022-10-16T06:46:20;4.35;;;3.00;;
63714;SDS011;49858;48.956;9.076;2022-10-16T06:48:49;3.97;;;2.67;;
63714;SDS011;49858;48.956;9.076;2022-10-16T06:51:18;5.90;;;3.42;;
63714;SDS011;49858;48.956;9.076;2022-10-16T06:53:47;5.43;;;3.10;;
63714;SDS011;49858;48.956;9.076;2022-10-16T06:56:28;7.72;;;2.80;;
63714;SDS011;49858;48.956;9.076;2022-10-16T06:58:58;8.15;;;3.65;;
63714;SDS011;49858;48.956;9.076;2022-10-16T07:01:27;6.25;;;3.40;;
63714;SDS011;49858;48.956;9.076;2022-10-16T07:03:55;5.43;;;2.95;;
63714;SDS011;49858;48.956;9.076;2022-10-16T07:06:24;7.50;;;3.38;;
63714;SDS011;49858;48.956;9.076;2022-10-16T07:08:53;7.32;;;3.15;;
63714;SDS011;49858;48.956;9.076;2022-10-16T07:11:29;4.85;;;2.85;;
63714;SDS011;49858;48.956;9.076;2022-10-16T07:13:56;6.43;;;2.70;;
63714;SDS011;49858;48.956;9.076;2022-10-16T07:16:25;4.15;;;2.67;;
63714;SDS011;49858;48.956;9.076;2022-10-16T07:18:55;3.42;;;2.45;;
63714;SDS011;49858;48.956;9.076;2022-10-16T07:21:28;5.80;;;2.40;;
63714;SDS011;49858;48.956;9.076;2022-10-16T07:23:57;3.05;;;2.42;;
63714;SDS011;49858;48.956;9.076;2022-10-16T07:26:28;7.82;;;2.60;;
63714;SDS011;49858;48.956;9.076;2022-10-16T07:28:57;3.70;;;2.55;;
63714;SDS011;49858;48.956;9.076;2022-10-16T07:31:26;5.40;;;3.28;;
63714;SDS011;49858;48.956;9.076;2022-10-16T07:33:55;4.68;;;2.83;;
63714;SDS011;49858;48.956;9.076;2022-10-16T07:36:24;5.50;;;3.67;;
63714;SDS011;49858;48.956;9.076;2022-10-16T07:38:52;4.45;;;3.03;;
63714;SDS011;49858;48.956;9.076;2022-10-16T07:41:25;3.17;;;2.50;;
63714;SDS011;49858;48.956;9.076;2022-10-16T07:43:53;4.32;;;2.95;;
63714;SDS011;49858;48.956;9.076;2022-10-16T07:46:22;10.48;;;2.97;;
63714;SDS011;49858;48.956;9.076;2022-10-16T07:48:52;4.80;;;2.55;;
63714;SDS011;49858;48.956;9.076;2022-10-16T07:51:20;5.50;;;2.47;;
63714;SDS011;49858;48.956;9.076;2022-10-16T07:53:50;7.00;;;2.42;;
63714;SDS011;49858;48.956;9.076;2022-10-16T07:56:19;3.30;;;2.50;;
63714;SDS011;49858;48.956;9.076;2022-10-16T07:58:47;4.75;;;2.75;;
63714;SDS011;49858;48.956;9.076;2022-10-16T08:01:16;7.43;;;2.92;;
63714;SDS011;49858;48.956;9.076;2022-10-16T08:03:45;4.18;;;2.38;;
63714;SDS011;49858;48.956;9.076;2022-10-16T08:06:16;5.22;;;2.60;;
63714;SDS011;49858;48.956;9.076;2022-10-16T08:08:50;4.22;;;2.70;;
63714;SDS011;49858;48.956;9.076;2022-10-16T08:11:18;4.88;;;2.50;;
63714;SDS011;49858;48.956;9.076;2022-10-16T08:13:46;3.75;;;2.60;;
63714;SDS011;49858;48.956;9.076;2022-10-16T08:16:13;3.85;;;2.53;;
63714;SDS011;49858;48.956;9.076;2022-10-16T08:18:41;3.15;;;2.42;;
63714;SDS011;49858;48.956;9.076;2022-10-16T08:21:12;6.85;;;2.47;;
63714;SDS011;49858;48.956;9.076;2022-10-16T08:23:48;3.65;;;2.70;;
63714;SDS011;49858;48.956;9.076;2022-10-16T08:26:23;6.97;;;2.20;;
63714;SDS011;49858;48.956;9.076;2022-10-16T08:28:51;2.78;;;1.80;;
63714;SDS011;49858;48.956;9.076;2022-10-16T08:31:19;4.47;;;2.60;;
63714;SDS011;49858;48.956;9.076;2022-10-16T08:33:47;6.18;;;2.45;;
63714;SDS011;49858;48.956;9.076;2022-10-16T08:36:15;4.15;;;2.00;;
63714;SDS011;49858;48.956;9.076;2022-10-16T08:38:43;6.93;;;2.13;;
63714;SDS011;49858;48.956;9.076;2022-10-16T08:47:13;2.78;;;1.95;;
63714;SDS011;49858;48.956;9.076;2022-10-16T08:49:50;2.45;;;1.70;;
63714;SDS011;49858;48.956;9.076;2022-10-16T08:52:22;3.42;;;2.35;;
63714;SDS011;49858;48.956;9.076;2022-10-16T08:55:00;6.10;;;1.98;;
63714;SDS011;49858;48.956;9.076;2022-10-16T08:57:31;2.40;;;1.95;;
63714;SDS011;49858;48.956;9.076;2022-10-16T09:00:00;3.95;;;2.22;;
63714;SDS011;49858;48.956;9.076;2022-10-16T09:05:05;3.03;;;1.80;;
63714;SDS011;49858;48.956;9.076;2022-10-16T09:07:43;2.55;;;1.77;;
63714;SDS011;49858;48.956;9.076;2022-10-16T09:10:22;2.72;;;1.80;;
63714;SDS011;49858;48.956;9.076;2022-10-16T09:13:02;4.40;;;2.35;;
63714;SDS011;49858;48.956;9.076;2022-10-16T09:15:43;4.22;;;1.80;;
63714;SDS011;49858;48.956;9.076;2022-10-16T09:18:19;1.92;;;1.58;;
63714;SDS011;49858;48.956;9.076;2022-10-16T09:20:59;3.45;;;1.65;;
63714;SDS011;49858;48.956;9.076;2022-10-16T09:23:34;3.22;;;1.80;;
63714;SDS011;49858;48.956;9.076;2022-10-16T09:26:05;3.13;;;1.60;;
63714;SDS011;49858;48.956;9.076;2022-10-16T09:28:38;7.45;;;1.50;;
63714;SDS011;49858;48.956;9.076;2022-10-16T09:31:09;2.38;;;1.52;;
63714;SDS011;49858;48.956;9.076;2022-10-16T09:33:42;2.30;;;1.30;;
63714;SDS011;49858;48.956;9.076;2022-10-16T09:36:12;3.28;;;1.70;;
63714;SDS011;49858;48.956;9.076;2022-10-16T09:38:41;4.20;;;1.50;;
63714;SDS011;49858;48.956;9.076;2022-10-16T09:41:14;4.00;;;1.55;;
63714;SDS011;49858;48.956;9.076;2022-10-16T09:43:48;1.70;;;1.40;;
63714;SDS011;49858;48.956;9.076;2022-10-16T09:46:21;1.63;;;1.10;;
63714;SDS011;49858;48.956;9.076;2022-10-16T09:48:53;2.35;;;1.13;;
63714;SDS011;49858;48.956;9.076;2022-10-16T09:51:24;2.58;;;1.27;;
63714;SDS011;49858;48.956;9.076;2022-10-16T09:53:57;3.08;;;1.40;;
63714;SDS011;49858;48.956;9.076;2022-10-16T09:56:28;6.45;;;1.60;;
63714;SDS011;49858;48.956;9.076;2022-10-16T09:58:59;2.42;;;1.65;;
63714;SDS011;49858;48.956;9.076;2022-10-16T10:01:29;1.98;;;1.33;;
63714;SDS011;49858;48.956;9.076;2022-10-16T10:03:58;2.28;;;1.42;;
63714;SDS011;49858;48.956;9.076;2022-10-16T10:06:29;2.38;;;1.67;;
63714;SDS011;49858;48.956;9.076;2022-10-16T10:09:02;2.50;;;1.40;;
63714;SDS011;49858;48.956;9.076;2022-10-16T10:11:42;3.08;;;1.50;;
63714;SDS011;49858;48.956;9.076;2022-10-16T10:14:15;1.55;;;1.13;;
63714;SDS011;49858;48.956;9.076;2022-10-16T10:16:46;3.55;;;1.45;;
63714;SDS011;49858;48.956;9.076;2022-10-16T10:19:15;4.07;;;1.50;;
63714;SDS011;49858;48.956;9.076;2022-10-16T10:21:44;1.45;;;1.20;;
63714;SDS011;49858;48.956;9.076;2022-10-16T10:24:12;3.45;;;1.30;;
63714;SDS011;49858;48.956;9.076;2022-10-16T10:26:44;5.90;;;1.33;;
63714;SDS011;49858;48.956;9.076;2022-10-16T10:29:18;2.42;;;1.48;;
63714;SDS011;49858;48.956;9.076;2022-10-16T10:32:00;2.85;;;1.15;;
63714;SDS011;49858;48.956;9.076;2022-10-16T10:34:43;1.90;;;1.20;;
63714;SDS011;49858;48.956;9.076;2022-10-16T10:37:25;3.08;;;1.48;;
63714;SDS011;49858;48.956;9.076;2022-10-16T10:40:05;2.33;;;1.38;;
63714;SDS011;49858;48.956;9.076;2022-10-16T10:42:42;2.40;;;1.15;;
63714;SDS011;49858;48.956;9.076;2022-10-16T10:45:22;2.05;;;1.20;;
63714;SDS011;49858;48.956;9.076;2022-10-16T10:48:06;4.15;;;1.40;;
63714;SDS011;49858;48.956;9.076;2022-10-16T10:50:48;3.67;;;1.55;;
63714;SDS011;49858;48.956;9.076;2022-10-16T10:53:24;2.72;;;1.35;;
63714;SDS011;49858;48.956;9.076;2022-10-16T10:56:02;12.82;;;2.17;;
63714;SDS011;49858;48.956;9.076;2022-10-16T10:58:44;6.43;;;1.33;;
63714;SDS011;49858;48.956;9.076;2022-10-16T11:01:26;2.78;;;1.40;;
63714;SDS011;49858;48.956;9.076;2022-10-16T11:07:24;3.95;;;1.30;;
63714;SDS011;49858;48.956;9.076;2022-10-16T11:09:56;2.45;;;1.30;;
63714;SDS011;49858;48.956;9.076;2022-10-16T11:12:29;1.50;;;1.20;;
63714;SDS011;49858;48.956;9.076;2022-10-16T11:15:03;5.43;;;1.20;;
63714;SDS011;49858;48.956;9.076;2022-10-16T11:17:38;3.78;;;1.20;;
63714;SDS011;49858;48.956;9.076;2022-10-16T11:20:12;1.60;;;1.00;;
63714;SDS011;49858;48.956;9.076;2022-10-16T11:22:44;4.45;;;1.55;;
63714;SDS011;49858;48.956;9.076;2022-10-16T11:25:19;4.82;;;1.80;;
63714;SDS011;49858;48.956;9.076;2022-10-16T11:27:50;4.30;;;1.42;;
63714;SDS011;49858;48.956;9.076;2022-10-16T11:30:24;3.17;;;1.30;;
63714;SDS011;49858;48.956;9.076;2022-10-16T11:33:04;2.00;;;1.20;;
63714;SDS011;49858;48.956;9.076;2022-10-16T11:35:47;2.55;;;1.10;;
63714;SDS011;49858;48.956;9.076;2022-10-16T11:38:21;3.40;;;1.50;;
63714;SDS011;49858;48.956;9.076;2022-10-16T11:40:57;6.78;;;1.20;;
63714;SDS011;49858;48.956;9.076;2022-10-16T11:43:28;1.35;;;1.05;;
63714;SDS011;49858;48.956;9.076;2022-10-16T11:46:08;1.45;;;0.90;;
63714;SDS011;49858;48.956;9.076;2022-10-16T11:48:41;1.30;;;0.90;;
63714;SDS011;49858;48.956;9.076;2022-10-16T11:51:14;1.75;;;0.90;;
63714;SDS011;49858;48.956;9.076;2022-10-16T11:53:49;1.85;;;1.27;;
63714;SDS011;49858;48.956;9.076;2022-10-16T11:56:24;2.63;;;1.90;;
63714;SDS011;49858;48.956;9.076;2022-10-16T11:58:54;2.97;;;1.25;;
63714;SDS011;49858;48.956;9.076;2022-10-16T12:01:28;4.43;;;1.75;;
63714;SDS011;49858;48.956;9.076;2022-10-16T12:04:12;1.58;;;1.23;;
63714;SDS011;49858;48.956;9.076;2022-10-16T12:06:47;1.80;;;1.40;;
63714;SDS011;49858;48.956;9.076;2022-10-16T12:09:20;2.50;;;1.17;;
63714;SDS011;49858;48.956;9.076;2022-10-16T12:11:52;2.55;;;1.00;;
63714;SDS011;49858;48.956;9.076;2022-10-16T12:17:33;1.70;;;1.10;;
63714;SDS011;49858;48.956;9.076;2022-10-16T12:20:17;6.18;;;1.20;;
63714;SDS011;49858;48.956;9.076;2022-10-16T12:22:54;2.90;;;1.30;;
63714;SDS011;49858;48.956;9.076;2022-10-16T12:25:25;2.45;;;1.20;;
63714;SDS011;49858;48.956;9.076;2022-10-16T12:27:55;1.60;;;1.25;;
63714;SDS011;49858;48.956;9.076;2022-10-16T12:30:26;2.92;;;1.35;;
63714;SDS011;49858;48.956;9.076;2022-10-16T12:33:02;1.80;;;1.15;;
63714;SDS011;49858;48.956;9.076;2022-10-16T12:35:33;2.47;;;1.20;;
63714;SDS011;49858;48.956;9.076;2022-10-16T12:38:15;4.40;;;1.13;;
63714;SDS011;49858;48.956;9.076;2022-10-16T12:40:44;5.03;;;1.10;;
63714;SDS011;49858;48.956;9.076;2022-10-16T12:43:28;2.10;;;1.40;;
63714;SDS011;49858;48.956;9.076;2022-10-16T12:46:05;1.77;;;1.10;;
63714;SDS011;49858;48.956;9.076;2022-10-16T12:48:49;2.65;;;1.10;;
63714;SDS011;49858;48.956;9.076;2022-10-16T12:51:34;3.05;;;1.42;;
63714;SDS011;49858;48.956;9.076;2022-10-16T12:54:04;5.05;;;1.25;;
63714;SDS011;49858;48.956;9.076;2022-10-16T12:56:41;1.50;;;1.13;;
63714;SDS011;49858;48.956;9.076;2022-10-16T12:59:21;1.55;;;1.10;;
63714;SDS011;49858;48.956;9.076;2022-10-16T13:02:08;2.38;;;1.10;;
63714;SDS011;49858;48.956;9.076;2022-10-16T13:04:57;2.70;;;1.10;;
63714;SDS011;49858;48.956;9.076;2022-10-16T13:07:48;3.38;;;1.05;;
63714;SDS011;49858;48.956;9.076;2022-10-16T13:10:25;4.63;;;1.60;;
63714;SDS011;49858;48.956;9.076;2022-10-16T13:13:03;3.65;;;1.45;;
63714;SDS011;49858;48.956;9.076;2022-10-16T13:15:47;1.60;;;1.10;;
63714;SDS011;49858;48.956;9.076;2022-10-16T13:18:25;2.55;;;1.20;;
63714;SDS011;49858;48.956;9.076;2022-10-16T13:21:04;3.10;;;1.13;;
63714;SDS011;49858;48.956;9.076;2022-10-16T13:23:41;3.60;;;1.38;;
63714;SDS011;49858;48.956;9.076;2022-10-16T13:26:23;2.13;;;1.50;;
63714;SDS011;49858;48.956;9.076;2022-10-16T13:28:59;2.25;;;1.15;;
63714;SDS011;49858;48.956;9.076;2022-10-16T13:31:27;2.72;;;1.27;;
63714;SDS011;49858;48.956;9.076;2022-10-16T13:33:57;3.17;;;1.40;;
63714;SDS011;49858;48.956;9.076;2022-10-16T13:36:29;2.17;;;1.45;;
63714;SDS011;49858;48.956;9.076;2022-10-16T13:39:06;1.60;;;1.10;;
63714;SDS011;49858;48.956;9.076;2022-10-16T13:41:39;1.75;;;1.10;;
63714;SDS011;49858;48.956;9.076;2022-10-16T13:44:17;4.72;;;1.33;;
63714;SDS011;49858;48.956;9.076;2022-10-16T13:46:47;2.63;;;1.17;;
63714;SDS011;49858;48.956;9.076;2022-10-16T13:49:26;1.75;;;1.20;;
63714;SDS011;49858;48.956;9.076;2022-10-16T13:51:55;2.55;;;1.40;;
63714;SDS011;49858;48.956;9.076;2022-10-16T13:54:25;2.25;;;1.00;;
63714;SDS011;49858;48.956;9.076;2022-10-16T13:57:04;1.98;;;1.20;;
63714;SDS011;49858;48.956;9.076;2022-10-16T13:59:52;1.55;;;0.90;;
63714;SDS011;49858;48.956;9.076;2022-10-16T14:02:22;2.80;;;1.13;;
63714;SDS011;49858;48.956;9.076;2022-10-16T14:04:54;2.80;;;1.17;;
63714;SDS011;49858;48.956;9.076;2022-10-16T14:07:25;1.77;;;1.20;;
63714;SDS011;49858;48.956;9.076;2022-10-16T14:09:55;2.28;;;1.40;;
63714;SDS011;49858;48.956;9.076;2022-10-16T14:12:26;2.92;;;1.17;;
63714;SDS011;49858;48.956;9.076;2022-10-16T14:14:54;2.13;;;1.40;;
63714;SDS011;49858;48.956;9.076;2022-10-16T14:17:25;3.05;;;1.23;;
63714;SDS011;49858;48.956;9.076;2022-10-16T14:19:55;1.95;;;1.63;;
63714;SDS011;49858;48.956;9.076;2022-10-16T14:22:30;2.80;;;1.60;;
63714;SDS011;49858;48.956;9.076;2022-10-16T14:25:01;3.25;;;1.48;;
63714;SDS011;49858;48.956;9.076;2022-10-16T14:27:41;1.70;;;1.30;;
63714;SDS011;49858;48.956;9.076;2022-10-16T14:30:12;1.90;;;1.23;;
63714;SDS011;49858;48.956;9.076;2022-10-16T14:32:51;3.33;;;1.15;;
63714;SDS011;49858;48.956;9.076;2022-10-16T14:35:25;4.30;;;1.50;;
63714;SDS011;49858;48.956;9.076;2022-10-16T14:37:56;2.15;;;1.30;;
63714;SDS011;49858;48.956;9.076;2022-10-16T14:40:25;1.77;;;1.20;;
63714;SDS011;49858;48.956;9.076;2022-10-16T14:42:54;2.95;;;1.52;;
63714;SDS011;49858;48.956;9.076;2022-10-16T14:45:24;3.67;;;1.40;;
63714;SDS011;49858;48.956;9.076;2022-10-16T14:47:54;1.88;;;1.20;;
63714;SDS011;49858;48.956;9.076;2022-10-16T14:50:24;1.45;;;1.15;;
63714;SDS011;49858;48.956;9.076;2022-10-16T14:52:52;2.65;;;1.48;;
63714;SDS011;49858;48.956;9.076;2022-10-16T14:55:21;2.05;;;1.02;;
63714;SDS011;49858;48.956;9.076;2022-10-16T14:57:54;3.72;;;1.40;;
63714;SDS011;49858;48.956;9.076;2022-10-16T15:00:26;3.42;;;1.20;;
63714;SDS011;49858;48.956;9.076;2022-10-16T15:02:54;2.25;;;1.23;;
63714;SDS011;49858;48.956;9.076;2022-10-16T15:05:22;4.82;;;1.27;;
63714;SDS011;49858;48.956;9.076;2022-10-16T15:07:52;2.90;;;1.20;;
63714;SDS011;49858;48.956;9.076;2022-10-16T15:10:23;2.15;;;1.50;;
63714;SDS011;49858;48.956;9.076;2022-10-16T15:12:53;5.40;;;2.28;;
63714;SDS011;49858;48.956;9.076;2022-10-16T15:15:23;5.97;;;2.10;;
63714;SDS011;49858;48.956;9.076;2022-10-16T15:18:00;3.97;;;1.52;;
63714;SDS011;49858;48.956;9.076;2022-10-16T15:20:29;2.75;;;1.50;;
63714;SDS011;49858;48.956;9.076;2022-10-16T15:23:00;5.93;;;1.90;;
63714;SDS011;49858;48.956;9.076;2022-10-16T15:25:34;2.75;;;1.40;;
63714;SDS011;49858;48.956;9.076;2022-10-16T15:28:03;4.95;;;1.50;;